sensor_id;sensor_type;location;lat;lon;timestamp;temperature;humidity
65836;SHT30;52595;51.608;7.216;2023-07-31T00:00:10;14.62;99.99
65836;SHT30;52595;51.608;7.216;2023-07-31T00:02:36;14.62;99.99
65836;SHT30;52595;51.608;7.216;2023-07-31T00:05:01;14.66;99.99
65836;SHT30;52595;51.608;7.216;2023-07-31T00:07:27;14.67;99.99
65836;SHT30;52595;51.608;7.216;2023-07-31T00:09:52;14.70;99.99
65836;SHT30;52595;51.608;7.216;2023-07-31T00:12:19;14.70;99.99
65836;SHT30;52595;51.608;7.216;2023-07-31T00:14:45;14.73;99.99
65836;SHT30;52595;51.608;7.216;2023-07-31T00:17:10;14.83;99.99
65836;SHT30;52595;51.608;7.216;2023-07-31T00:19:36;14.80;99.99
65836;SHT30;52595;51.608;7.216;2023-07-31T00:22:04;14.80;99.99
65836;SHT30;52595;51.608;7.216;2023-07-31T00:24:29;14.83;99.99
65836;SHT30;52595;51.608;7.216;2023-07-31T00:26:55;14.84;99.99
65836;SHT30;52595;51.608;7.216;2023-07-31T00:29:20;14.90;99.99
65836;SHT30;52595;51.608;7.216;2023-07-31T00:31:46;14.84;99.99
65836;SHT30;52595;51.608;7.216;2023-07-31T00:34:11;14.85;99.99
65836;SHT30;52595;51.608;7.216;2023-07-31T00:36:36;14.87;99.99
65836;SHT30;52595;51.608;7.216;2023-07-31T00:39:02;14.94;99.99
65836;SHT30;52595;51.608;7.216;2023-07-31T00:41:27;15.04;99.99
65836;SHT30;52595;51.608;7.216;2023-07-31T00:43:52;15.14;99.99
65836;SHT30;52595;51.608;7.216;2023-07-31T00:46:18;15.18;99.99
65836;SHT30;52595;51.608;7.216;2023-07-31T00:48:44;15.24;99.99
65836;SHT30;52595;51.608;7.216;2023-07-31T00:51:10;15.35;99.99
65836;SHT30;52595;51.608;7.216;2023-07-31T00:53:36;15.44;99.99
65836;SHT30;52595;51.608;7.216;2023-07-31T00:56:01;15.54;99.99
65836;SHT30;52595;51.608;7.216;2023-07-31T00:58:27;15.59;99.99
65836;SHT30;52595;51.608;7.216;2023-07-31T01:00:52;15.61;99.99
65836;SHT30;52595;51.608;7.216;2023-07-31T01:03:18;15.59;99.99
65836;SHT30;52595;51.608;7.216;2023-07-31T01:06:09;15.65;99.99
65836;SHT30;52595;51.608;7.216;2023-07-31T01:11:27;15.69;99.99
65836;SHT30;52595;51.608;7.216;2023-07-31T01:13:53;15.69;99.99
65836;SHT30;52595;51.608;7.216;2023-07-31T01:16:19;15.68;99.99
65836;SHT30;52595;51.608;7.216;2023-07-31T01:18:44;15.68;99.99
65836;SHT30;52595;51.608;7.216;2023-07-31T01:24:30;15.72;99.99
65836;SHT30;52595;51.608;7.216;2023-07-31T01:27:10;15.72;99.99
65836;SHT30;52595;51.608;7.216;2023-07-31T01:29:47;15.75;99.99
65836;SHT30;52595;51.608;7.216;2023-07-31T01:32:14;15.73;99.99
65836;SHT30;52595;51.608;7.216;2023-07-31T01:34:41;15.75;99.99
65836;SHT30;52595;51.608;7.216;2023-07-31T01:37:07;15.75;99.99
65836;SHT30;52595;51.608;7.216;2023-07-31T01:39:33;15.73;99.99
65836;SHT30;52595;51.608;7.216;2023-07-31T01:41:58;15.73;99.99
65836;SHT30;52595;51.608;7.216;2023-07-31T01:44:24;15.73;99.99
65836;SHT30;52595;51.608;7.216;2023-07-31T01:46:49;15.73;99.99
65836;SHT30;52595;51.608;7.216;2023-07-31T01:49:15;15.75;99.99
65836;SHT30;52595;51.608;7.216;2023-07-31T01:51:40;15.70;99.99
65836;SHT30;52595;51.608;7.216;2023-07-31T01:54:05;15.69;99.99
65836;SHT30;52595;51.608;7.216;2023-07-31T01:56:31;15.70;99.99
65836;SHT30;52595;51.608;7.216;2023-07-31T01:58:56;15.70;99.99
65836;SHT30;52595;51.608;7.216;2023-07-31T02:01:22;15.69;99.99
65836;SHT30;52595;51.608;7.216;2023-07-31T02:03:47;15.69;99.99
65836;SHT30;52595;51.608;7.216;2023-07-31T02:06:13;15.66;99.99
65836;SHT30;52595;51.608;7.216;2023-07-31T02:08:38;15.68;99.99
65836;SHT30;52595;51.608;7.216;2023-07-31T02:11:04;15.66;99.99
65836;SHT30;52595;51.608;7.216;2023-07-31T02:13:29;15.66;99.99
65836;SHT30;52595;51.608;7.216;2023-07-31T02:15:54;15.65;99.99
65836;SHT30;52595;51.608;7.216;2023-07-31T02:18:20;15.65;99.99
65836;SHT30;52595;51.608;7.216;2023-07-31T02:20:52;15.63;99.99
65836;SHT30;52595;51.608;7.216;2023-07-31T02:23:18;15.63;99.99
65836;SHT30;52595;51.608;7.216;2023-07-31T02:25:44;15.63;99.99
65836;SHT30;52595;51.608;7.216;2023-07-31T02:28:10;15.62;99.99
65836;SHT30;52595;51.608;7.216;2023-07-31T02:30:35;15.61;99.99
65836;SHT30;52595;51.608;7.216;2023-07-31T02:33:01;15.61;99.99
65836;SHT30;52595;51.608;7.216;2023-07-31T02:35:26;15.59;99.99
65836;SHT30;52595;51.608;7.216;2023-07-31T02:37:51;15.66;99.99
65836;SHT30;52595;51.608;7.216;2023-07-31T02:40:17;15.63;99.99
65836;SHT30;52595;51.608;7.216;2023-07-31T02:42:42;15.63;99.99
65836;SHT30;52595;51.608;7.216;2023-07-31T02:45:08;15.65;99.99
65836;SHT30;52595;51.608;7.216;2023-07-31T02:47:34;15.66;99.99
65836;SHT30;52595;51.608;7.216;2023-07-31T02:49:59;15.63;99.99
65836;SHT30;52595;51.608;7.216;2023-07-31T02:52:25;15.68;99.99
65836;SHT30;52595;51.608;7.216;2023-07-31T02:54:53;15.70;99.99
65836;SHT30;52595;51.608;7.216;2023-07-31T02:57:18;15.81;99.99
65836;SHT30;52595;51.608;7.216;2023-07-31T02:59:44;15.75;99.99
65836;SHT30;52595;51.608;7.216;2023-07-31T03:02:09;15.78;99.99
65836;SHT30;52595;51.608;7.216;2023-07-31T03:04:35;15.79;99.99
65836;SHT30;52595;51.608;7.216;2023-07-31T03:07:01;15.88;99.11
65836;SHT30;52595;51.608;7.216;2023-07-31T03:09:26;15.89;99.41
65836;SHT30;52595;51.608;7.216;2023-07-31T03:11:52;15.93;98.94
65836;SHT30;52595;51.608;7.216;2023-07-31T03:14:17;15.98;98.95
65836;SHT30;52595;51.608;7.216;2023-07-31T03:16:42;15.98;98.62
65836;SHT30;52595;51.608;7.216;2023-07-31T03:19:11;15.93;98.44
65836;SHT30;52595;51.608;7.216;2023-07-31T03:21:36;15.93;98.67
65836;SHT30;52595;51.608;7.216;2023-07-31T03:24:01;15.98;97.31
65836;SHT30;52595;51.608;7.216;2023-07-31T03:26:27;15.98;97.94
65836;SHT30;52595;51.608;7.216;2023-07-31T03:28:52;16.03;97.31
65836;SHT30;52595;51.608;7.216;2023-07-31T03:31:17;16.06;97.34
65836;SHT30;52595;51.608;7.216;2023-07-31T03:33:43;16.09;97.10
65836;SHT30;52595;51.608;7.216;2023-07-31T03:36:08;16.13;96.73
65836;SHT30;52595;51.608;7.216;2023-07-31T03:38:34;16.17;96.01
65836;SHT30;52595;51.608;7.216;2023-07-31T03:41:03;16.19;96.64
65836;SHT30;52595;51.608;7.216;2023-07-31T03:43:28;16.14;96.81
65836;SHT30;52595;51.608;7.216;2023-07-31T03:45:54;16.14;96.64
65836;SHT30;52595;51.608;7.216;2023-07-31T03:48:19;16.13;96.73
65836;SHT30;52595;51.608;7.216;2023-07-31T03:50:45;16.13;97.36
65836;SHT30;52595;51.608;7.216;2023-07-31T03:53:10;16.06;97.40
65836;SHT30;52595;51.608;7.216;2023-07-31T03:55:35;16.08;97.50
65836;SHT30;52595;51.608;7.216;2023-07-31T03:58:01;16.13;97.09
65836;SHT30;52595;51.608;7.216;2023-07-31T04:00:27;16.13;97.05
65836;SHT30;52595;51.608;7.216;2023-07-31T04:02:52;16.19;96.76
65836;SHT30;52595;51.608;7.216;2023-07-31T04:05:18;16.19;97.17
65836;SHT30;52595;51.608;7.216;2023-07-31T04:07:43;16.20;97.12
65836;SHT30;52595;51.608;7.216;2023-07-31T04:10:09;16.14;97.61
65836;SHT30;52595;51.608;7.216;2023-07-31T04:12:34;16.17;97.54
65836;SHT30;52595;51.608;7.216;2023-07-31T04:15:00;16.17;97.45
65836;SHT30;52595;51.608;7.216;2023-07-31T04:17:25;16.20;97.43
65836;SHT30;52595;51.608;7.216;2023-07-31T04:19:50;16.23;97.54
65836;SHT30;52595;51.608;7.216;2023-07-31T04:22:18;16.27;97.18
65836;SHT30;52595;51.608;7.216;2023-07-31T04:24:44;16.29;96.92
65836;SHT30;52595;51.608;7.216;2023-07-31T04:27:09;16.30;97.05
65836;SHT30;52595;51.608;7.216;2023-07-31T04:29:35;16.34;96.44
65836;SHT30;52595;51.608;7.216;2023-07-31T04:32:00;16.42;95.95
65836;SHT30;52595;51.608;7.216;2023-07-31T04:34:26;16.52;95.52
65836;SHT30;52595;51.608;7.216;2023-07-31T04:36:51;16.52;95.67
65836;SHT30;52595;51.608;7.216;2023-07-31T04:39:17;16.56;95.98
65836;SHT30;52595;51.608;7.216;2023-07-31T04:41:42;16.54;95.87
65836;SHT30;52595;51.608;7.216;2023-07-31T04:44:07;16.60;95.49
65836;SHT30;52595;51.608;7.216;2023-07-31T04:46:33;16.65;94.99
65836;SHT30;52595;51.608;7.216;2023-07-31T04:48:58;16.67;95.52
65836;SHT30;52595;51.608;7.216;2023-07-31T04:51:23;16.64;95.34
65836;SHT30;52595;51.608;7.216;2023-07-31T04:53:50;16.64;95.57
65836;SHT30;52595;51.608;7.216;2023-07-31T04:56:16;16.59;96.23
65836;SHT30;52595;51.608;7.216;2023-07-31T04:58:43;16.54;96.17
65836;SHT30;52595;51.608;7.216;2023-07-31T05:01:09;16.47;96.89
65836;SHT30;52595;51.608;7.216;2023-07-31T05:03:34;16.34;97.74
65836;SHT30;52595;51.608;7.216;2023-07-31T05:05:59;16.30;98.12
65836;SHT30;52595;51.608;7.216;2023-07-31T05:08:25;16.26;98.42
65836;SHT30;52595;51.608;7.216;2023-07-31T05:10:51;16.29;98.28
65836;SHT30;52595;51.608;7.216;2023-07-31T05:13:16;16.32;98.14
65836;SHT30;52595;51.608;7.216;2023-07-31T05:15:42;16.36;98.16
65836;SHT30;52595;51.608;7.216;2023-07-31T05:18:07;16.39;98.11
65836;SHT30;52595;51.608;7.216;2023-07-31T05:20:33;16.44;97.98
65836;SHT30;52595;51.608;7.216;2023-07-31T05:22:58;16.46;97.88
65836;SHT30;52595;51.608;7.216;2023-07-31T05:25:23;16.50;97.84
65836;SHT30;52595;51.608;7.216;2023-07-31T05:27:49;16.56;97.73
65836;SHT30;52595;51.608;7.216;2023-07-31T05:30:14;16.60;97.33
65836;SHT30;52595;51.608;7.216;2023-07-31T05:32:40;16.61;97.39
65836;SHT30;52595;51.608;7.216;2023-07-31T05:35:05;16.60;97.87
65836;SHT30;52595;51.608;7.216;2023-07-31T05:37:31;16.60;97.69
65836;SHT30;52595;51.608;7.216;2023-07-31T05:39:56;16.61;97.93
65836;SHT30;52595;51.608;7.216;2023-07-31T05:42:21;16.61;97.57
65836;SHT30;52595;51.608;7.216;2023-07-31T05:44:47;16.64;97.71
65836;SHT30;52595;51.608;7.216;2023-07-31T05:47:12;16.47;99.09
65836;SHT30;52595;51.608;7.216;2023-07-31T05:49:38;16.24;99.99
65836;SHT30;52595;51.608;7.216;2023-07-31T05:52:03;16.12;99.99
65836;SHT30;52595;51.608;7.216;2023-07-31T05:54:29;16.02;99.99
65836;SHT30;52595;51.608;7.216;2023-07-31T05:56:55;15.92;99.99
65836;SHT30;52595;51.608;7.216;2023-07-31T05:59:20;15.88;99.99
65836;SHT30;52595;51.608;7.216;2023-07-31T06:01:45;15.85;99.99
65836;SHT30;52595;51.608;7.216;2023-07-31T06:04:11;15.82;99.99
65836;SHT30;52595;51.608;7.216;2023-07-31T06:06:36;15.79;99.99
65836;SHT30;52595;51.608;7.216;2023-07-31T06:09:04;15.83;99.99
65836;SHT30;52595;51.608;7.216;2023-07-31T06:11:30;15.83;99.99
65836;SHT30;52595;51.608;7.216;2023-07-31T06:13:55;15.81;99.99
65836;SHT30;52595;51.608;7.216;2023-07-31T06:16:21;15.85;99.99
65836;SHT30;52595;51.608;7.216;2023-07-31T06:18:47;15.86;99.99
65836;SHT30;52595;51.608;7.216;2023-07-31T06:21:12;15.83;99.99
65836;SHT30;52595;51.608;7.216;2023-07-31T06:23:41;15.86;99.99
65836;SHT30;52595;51.608;7.216;2023-07-31T06:26:06;15.86;99.99
65836;SHT30;52595;51.608;7.216;2023-07-31T06:28:32;15.83;99.99
65836;SHT30;52595;51.608;7.216;2023-07-31T06:30:58;15.88;99.99
65836;SHT30;52595;51.608;7.216;2023-07-31T06:33:23;15.92;99.99
65836;SHT30;52595;51.608;7.216;2023-07-31T06:35:49;15.92;99.99
65836;SHT30;52595;51.608;7.216;2023-07-31T06:38:14;15.92;99.99
65836;SHT30;52595;51.608;7.216;2023-07-31T06:40:39;15.90;99.99
65836;SHT30;52595;51.608;7.216;2023-07-31T06:43:05;15.92;99.99
65836;SHT30;52595;51.608;7.216;2023-07-31T06:45:35;15.92;99.99
65836;SHT30;52595;51.608;7.216;2023-07-31T06:48:01;15.96;99.99
65836;SHT30;52595;51.608;7.216;2023-07-31T06:50:28;15.98;99.99
65836;SHT30;52595;51.608;7.216;2023-07-31T06:52:54;15.98;99.99
65836;SHT30;52595;51.608;7.216;2023-07-31T06:55:20;16.02;99.99
65836;SHT30;52595;51.608;7.216;2023-07-31T06:57:50;16.05;99.99
65836;SHT30;52595;51.608;7.216;2023-07-31T07:00:17;16.03;99.99
65836;SHT30;52595;51.608;7.216;2023-07-31T07:02:42;16.09;99.99
65836;SHT30;52595;51.608;7.216;2023-07-31T07:05:08;16.12;99.99
65836;SHT30;52595;51.608;7.216;2023-07-31T07:07:34;16.12;99.99
65836;SHT30;52595;51.608;7.216;2023-07-31T07:10:00;16.12;99.99
65836;SHT30;52595;51.608;7.216;2023-07-31T07:12:28;16.17;99.99
65836;SHT30;52595;51.608;7.216;2023-07-31T07:14:54;16.17;99.99
65836;SHT30;52595;51.608;7.216;2023-07-31T07:17:20;16.14;99.99
65836;SHT30;52595;51.608;7.216;2023-07-31T07:19:45;16.22;99.99
65836;SHT30;52595;51.608;7.216;2023-07-31T07:22:12;16.19;99.99
65836;SHT30;52595;51.608;7.216;2023-07-31T07:24:38;16.22;99.99
65836;SHT30;52595;51.608;7.216;2023-07-31T07:27:03;16.20;99.99
65836;SHT30;52595;51.608;7.216;2023-07-31T07:29:29;16.16;99.99
65836;SHT30;52595;51.608;7.216;2023-07-31T07:31:54;16.16;99.99
65836;SHT30;52595;51.608;7.216;2023-07-31T07:34:22;16.17;99.99
65836;SHT30;52595;51.608;7.216;2023-07-31T07:36:48;16.17;99.99
65836;SHT30;52595;51.608;7.216;2023-07-31T07:39:14;16.22;99.99
65836;SHT30;52595;51.608;7.216;2023-07-31T07:41:39;16.19;99.99
65836;SHT30;52595;51.608;7.216;2023-07-31T07:44:04;16.16;99.99
65836;SHT30;52595;51.608;7.216;2023-07-31T07:46:30;16.13;99.99
65836;SHT30;52595;51.608;7.216;2023-07-31T07:48:55;16.12;99.99
65836;SHT30;52595;51.608;7.216;2023-07-31T07:51:21;16.13;99.99
65836;SHT30;52595;51.608;7.216;2023-07-31T07:53:46;16.16;99.99
65836;SHT30;52595;51.608;7.216;2023-07-31T07:56:12;16.13;99.99
65836;SHT30;52595;51.608;7.216;2023-07-31T07:58:37;16.12;99.99
65836;SHT30;52595;51.608;7.216;2023-07-31T08:01:03;16.13;99.99
65836;SHT30;52595;51.608;7.216;2023-07-31T08:03:31;16.19;99.99
65836;SHT30;52595;51.608;7.216;2023-07-31T08:06:00;16.27;99.99
65836;SHT30;52595;51.608;7.216;2023-07-31T08:08:28;16.26;99.99
65836;SHT30;52595;51.608;7.216;2023-07-31T08:10:53;16.36;99.99
65836;SHT30;52595;51.608;7.216;2023-07-31T08:13:19;16.30;99.99
65836;SHT30;52595;51.608;7.216;2023-07-31T08:15:45;16.32;99.99
65836;SHT30;52595;51.608;7.216;2023-07-31T08:18:11;16.26;99.99
65836;SHT30;52595;51.608;7.216;2023-07-31T08:20:37;16.20;99.99
65836;SHT30;52595;51.608;7.216;2023-07-31T08:23:02;16.22;99.99
65836;SHT30;52595;51.608;7.216;2023-07-31T08:25:28;16.30;99.99
65836;SHT30;52595;51.608;7.216;2023-07-31T08:27:53;16.30;99.99
65836;SHT30;52595;51.608;7.216;2023-07-31T08:30:19;16.30;99.99
65836;SHT30;52595;51.608;7.216;2023-07-31T08:32:44;16.22;99.99
65836;SHT30;52595;51.608;7.216;2023-07-31T08:35:10;16.26;99.99
65836;SHT30;52595;51.608;7.216;2023-07-31T08:37:37;16.19;99.99
65836;SHT30;52595;51.608;7.216;2023-07-31T08:40:03;16.17;99.99
65836;SHT30;52595;51.608;7.216;2023-07-31T08:42:29;16.22;99.99
65836;SHT30;52595;51.608;7.216;2023-07-31T08:44:55;16.12;99.99
65836;SHT30;52595;51.608;7.216;2023-07-31T08:47:22;16.10;99.99
65836;SHT30;52595;51.608;7.216;2023-07-31T08:49:48;16.09;99.99
65836;SHT30;52595;51.608;7.216;2023-07-31T08:52:14;16.12;99.99
65836;SHT30;52595;51.608;7.216;2023-07-31T08:54:40;16.06;99.99
65836;SHT30;52595;51.608;7.216;2023-07-31T08:57:07;16.00;99.99
65836;SHT30;52595;51.608;7.216;2023-07-31T08:59:34;16.02;99.99
65836;SHT30;52595;51.608;7.216;2023-07-31T09:02:09;16.00;99.99
65836;SHT30;52595;51.608;7.216;2023-07-31T09:04:35;15.96;99.99
65836;SHT30;52595;51.608;7.216;2023-07-31T09:07:03;16.00;99.99
65836;SHT30;52595;51.608;7.216;2023-07-31T09:09:32;15.98;99.99
65836;SHT30;52595;51.608;7.216;2023-07-31T09:11:58;16.02;99.99
65836;SHT30;52595;51.608;7.216;2023-07-31T09:14:25;16.02;99.99
65836;SHT30;52595;51.608;7.216;2023-07-31T09:16:55;16.05;99.99
65836;SHT30;52595;51.608;7.216;2023-07-31T09:19:32;16.09;99.99
65836;SHT30;52595;51.608;7.216;2023-07-31T09:22:00;16.03;99.99
65836;SHT30;52595;51.608;7.216;2023-07-31T09:24:27;16.08;99.99
65836;SHT30;52595;51.608;7.216;2023-07-31T09:26:54;16.08;99.99
65836;SHT30;52595;51.608;7.216;2023-07-31T09:29:24;16.09;99.99
65836;SHT30;52595;51.608;7.216;2023-07-31T09:31:53;16.12;99.99
65836;SHT30;52595;51.608;7.216;2023-07-31T09:34:19;16.09;99.99
65836;SHT30;52595;51.608;7.216;2023-07-31T09:36:47;16.05;99.99
65836;SHT30;52595;51.608;7.216;2023-07-31T09:39:15;16.16;99.99
65836;SHT30;52595;51.608;7.216;2023-07-31T09:41:47;16.29;99.99
65836;SHT30;52595;51.608;7.216;2023-07-31T09:44:13;16.23;99.99
65836;SHT30;52595;51.608;7.216;2023-07-31T09:46:39;16.27;99.99
65836;SHT30;52595;51.608;7.216;2023-07-31T09:49:06;16.24;99.99
65836;SHT30;52595;51.608;7.216;2023-07-31T09:51:32;16.33;99.99
65836;SHT30;52595;51.608;7.216;2023-07-31T09:54:03;16.32;99.99
65836;SHT30;52595;51.608;7.216;2023-07-31T09:56:28;16.43;99.99
65836;SHT30;52595;51.608;7.216;2023-07-31T09:58:55;16.50;99.99
65836;SHT30;52595;51.608;7.216;2023-07-31T10:01:21;16.44;99.99
65836;SHT30;52595;51.608;7.216;2023-07-31T10:03:47;16.46;99.99
65836;SHT30;52595;51.608;7.216;2023-07-31T10:06:13;16.46;99.99
65836;SHT30;52595;51.608;7.216;2023-07-31T10:08:41;16.54;99.99
65836;SHT30;52595;51.608;7.216;2023-07-31T10:11:09;16.47;99.99
65836;SHT30;52595;51.608;7.216;2023-07-31T10:13:35;16.52;99.99
65836;SHT30;52595;51.608;7.216;2023-07-31T10:16:01;16.43;99.99
65836;SHT30;52595;51.608;7.216;2023-07-31T10:18:27;16.44;99.99
65836;SHT30;52595;51.608;7.216;2023-07-31T10:20:54;16.44;99.99
65836;SHT30;52595;51.608;7.216;2023-07-31T10:23:20;16.52;99.99
65836;SHT30;52595;51.608;7.216;2023-07-31T10:25:46;16.52;99.99
65836;SHT30;52595;51.608;7.216;2023-07-31T10:28:12;16.56;99.99
65836;SHT30;52595;51.608;7.216;2023-07-31T10:30:39;16.64;99.99
65836;SHT30;52595;51.608;7.216;2023-07-31T10:33:05;16.73;99.99
65836;SHT30;52595;51.608;7.216;2023-07-31T10:35:31;16.73;99.99
65836;SHT30;52595;51.608;7.216;2023-07-31T10:38:09;16.75;99.99
65836;SHT30;52595;51.608;7.216;2023-07-31T10:40:35;16.70;99.99
65836;SHT30;52595;51.608;7.216;2023-07-31T10:43:03;16.63;99.99
65836;SHT30;52595;51.608;7.216;2023-07-31T10:45:37;16.57;99.99
65836;SHT30;52595;51.608;7.216;2023-07-31T10:48:14;16.61;99.99
65836;SHT30;52595;51.608;7.216;2023-07-31T10:50:56;16.52;99.99
65836;SHT30;52595;51.608;7.216;2023-07-31T10:53:31;16.44;99.99
65836;SHT30;52595;51.608;7.216;2023-07-31T10:56:05;16.46;99.99
65836;SHT30;52595;51.608;7.216;2023-07-31T10:58:31;16.46;99.99
65836;SHT30;52595;51.608;7.216;2023-07-31T11:01:01;16.53;99.99
65836;SHT30;52595;51.608;7.216;2023-07-31T11:03:48;16.56;99.99
65836;SHT30;52595;51.608;7.216;2023-07-31T11:06:19;16.46;99.99
65836;SHT30;52595;51.608;7.216;2023-07-31T11:08:46;16.54;99.99
65836;SHT30;52595;51.608;7.216;2023-07-31T11:11:14;16.54;99.99
65836;SHT30;52595;51.608;7.216;2023-07-31T11:13:51;16.56;99.99
65836;SHT30;52595;51.608;7.216;2023-07-31T11:16:24;16.56;99.99
65836;SHT30;52595;51.608;7.216;2023-07-31T11:18:51;16.63;99.99
65836;SHT30;52595;51.608;7.216;2023-07-31T11:21:24;16.70;99.99
65836;SHT30;52595;51.608;7.216;2023-07-31T11:23:53;16.75;99.99
65836;SHT30;52595;51.608;7.216;2023-07-31T11:26:19;16.73;99.99
65836;SHT30;52595;51.608;7.216;2023-07-31T11:28:48;16.75;99.99
65836;SHT30;52595;51.608;7.216;2023-07-31T11:31:14;16.83;99.99
65836;SHT30;52595;51.608;7.216;2023-07-31T11:33:39;16.81;99.99
65836;SHT30;52595;51.608;7.216;2023-07-31T11:36:04;16.83;99.99
65836;SHT30;52595;51.608;7.216;2023-07-31T11:38:31;16.91;99.99
65836;SHT30;52595;51.608;7.216;2023-07-31T11:40:59;16.97;99.99
65836;SHT30;52595;51.608;7.216;2023-07-31T11:43:25;16.94;99.99
65836;SHT30;52595;51.608;7.216;2023-07-31T11:45:54;16.95;99.99
65836;SHT30;52595;51.608;7.216;2023-07-31T11:48:24;16.94;99.99
65836;SHT30;52595;51.608;7.216;2023-07-31T11:50:52;16.97;99.99
65836;SHT30;52595;51.608;7.216;2023-07-31T11:53:22;17.00;99.99
65836;SHT30;52595;51.608;7.216;2023-07-31T11:55:48;16.92;99.99
65836;SHT30;52595;51.608;7.216;2023-07-31T11:58:15;17.11;99.99
65836;SHT30;52595;51.608;7.216;2023-07-31T12:00:41;17.14;99.99
65836;SHT30;52595;51.608;7.216;2023-07-31T12:03:07;17.19;99.99
65836;SHT30;52595;51.608;7.216;2023-07-31T12:05:32;17.11;99.99
65836;SHT30;52595;51.608;7.216;2023-07-31T12:07:57;17.12;99.99
65836;SHT30;52595;51.608;7.216;2023-07-31T12:10:31;17.17;99.99
65836;SHT30;52595;51.608;7.216;2023-07-31T12:13:08;17.17;99.99
65836;SHT30;52595;51.608;7.216;2023-07-31T12:15:39;17.08;99.99
65836;SHT30;52595;51.608;7.216;2023-07-31T12:18:12;17.31;99.99
65836;SHT30;52595;51.608;7.216;2023-07-31T12:20:47;17.34;99.99
65836;SHT30;52595;51.608;7.216;2023-07-31T12:23:24;17.35;99.99
65836;SHT30;52595;51.608;7.216;2023-07-31T12:26:22;17.40;99.99
65836;SHT30;52595;51.608;7.216;2023-07-31T12:28:50;17.32;99.99
65836;SHT30;52595;51.608;7.216;2023-07-31T12:31:21;17.31;99.99
65836;SHT30;52595;51.608;7.216;2023-07-31T12:33:47;17.24;99.99
65836;SHT30;52595;51.608;7.216;2023-07-31T12:36:20;17.18;99.99
65836;SHT30;52595;51.608;7.216;2023-07-31T12:38:45;17.11;99.99
65836;SHT30;52595;51.608;7.216;2023-07-31T12:41:12;17.12;99.99
65836;SHT30;52595;51.608;7.216;2023-07-31T12:43:39;17.15;99.99
65836;SHT30;52595;51.608;7.216;2023-07-31T12:46:06;17.03;99.99
65836;SHT30;52595;51.608;7.216;2023-07-31T12:48:36;17.08;99.99
65836;SHT30;52595;51.608;7.216;2023-07-31T12:51:02;17.12;99.99
65836;SHT30;52595;51.608;7.216;2023-07-31T12:53:28;17.21;99.99
65836;SHT30;52595;51.608;7.216;2023-07-31T12:55:55;17.17;99.99
65836;SHT30;52595;51.608;7.216;2023-07-31T12:58:21;17.21;99.99
65836;SHT30;52595;51.608;7.216;2023-07-31T13:00:46;17.27;99.99
65836;SHT30;52595;51.608;7.216;2023-07-31T13:03:12;17.35;99.99
65836;SHT30;52595;51.608;7.216;2023-07-31T13:05:37;17.43;99.99
65836;SHT30;52595;51.608;7.216;2023-07-31T13:08:03;17.61;99.99
65836;SHT30;52595;51.608;7.216;2023-07-31T13:10:28;17.80;99.99
65836;SHT30;52595;51.608;7.216;2023-07-31T13:12:55;17.70;99.99
65836;SHT30;52595;51.608;7.216;2023-07-31T13:15:20;17.65;99.99
65836;SHT30;52595;51.608;7.216;2023-07-31T13:17:46;17.63;99.99
65836;SHT30;52595;51.608;7.216;2023-07-31T13:20:14;17.73;99.99
65836;SHT30;52595;51.608;7.216;2023-07-31T13:22:39;17.68;99.99
65836;SHT30;52595;51.608;7.216;2023-07-31T13:25:05;17.68;99.99
65836;SHT30;52595;51.608;7.216;2023-07-31T13:27:31;17.53;99.99
65836;SHT30;52595;51.608;7.216;2023-07-31T13:29:56;17.46;99.99
65836;SHT30;52595;51.608;7.216;2023-07-31T13:32:22;17.53;99.99
65836;SHT30;52595;51.608;7.216;2023-07-31T13:34:48;17.48;99.99
65836;SHT30;52595;51.608;7.216;2023-07-31T13:37:14;17.48;99.99
65836;SHT30;52595;51.608;7.216;2023-07-31T13:39:40;17.59;99.99
65836;SHT30;52595;51.608;7.216;2023-07-31T13:42:06;17.59;99.99
65836;SHT30;52595;51.608;7.216;2023-07-31T13:44:34;17.56;99.99
65836;SHT30;52595;51.608;7.216;2023-07-31T13:46:59;17.61;99.99
65836;SHT30;52595;51.608;7.216;2023-07-31T13:49:26;17.62;99.99
65836;SHT30;52595;51.608;7.216;2023-07-31T13:51:51;17.59;99.99
65836;SHT30;52595;51.608;7.216;2023-07-31T13:54:16;17.56;99.99
65836;SHT30;52595;51.608;7.216;2023-07-31T13:56:43;17.52;99.99
65836;SHT30;52595;51.608;7.216;2023-07-31T13:59:08;17.58;99.99
65836;SHT30;52595;51.608;7.216;2023-07-31T14:01:33;17.58;99.99
65836;SHT30;52595;51.608;7.216;2023-07-31T14:03:59;17.62;99.99
65836;SHT30;52595;51.608;7.216;2023-07-31T14:06:25;17.70;99.99
65836;SHT30;52595;51.608;7.216;2023-07-31T14:08:50;17.80;99.99
65836;SHT30;52595;51.608;7.216;2023-07-31T14:11:15;18.00;99.99
65836;SHT30;52595;51.608;7.216;2023-07-31T14:13:41;18.09;99.15
65836;SHT30;52595;51.608;7.216;2023-07-31T14:16:06;18.14;99.03
65836;SHT30;52595;51.608;7.216;2023-07-31T14:18:32;18.24;98.73
65836;SHT30;52595;51.608;7.216;2023-07-31T14:20:57;18.18;98.61
65836;SHT30;52595;51.608;7.216;2023-07-31T14:23:23;18.23;98.86
65836;SHT30;52595;51.608;7.216;2023-07-31T14:25:48;18.17;98.36
65836;SHT30;52595;51.608;7.216;2023-07-31T14:28:13;18.26;98.36
65836;SHT30;52595;51.608;7.216;2023-07-31T14:30:39;18.41;97.59
65836;SHT30;52595;51.608;7.216;2023-07-31T14:33:04;18.44;97.16
65836;SHT30;52595;51.608;7.216;2023-07-31T14:35:30;18.67;97.58
65836;SHT30;52595;51.608;7.216;2023-07-31T14:37:55;18.78;96.50
65836;SHT30;52595;51.608;7.216;2023-07-31T14:40:24;18.81;96.90
65836;SHT30;52595;51.608;7.216;2023-07-31T14:42:49;18.79;96.13
65836;SHT30;52595;51.608;7.216;2023-07-31T14:45:14;18.77;96.00
65836;SHT30;52595;51.608;7.216;2023-07-31T14:47:40;18.71;95.65
65836;SHT30;52595;51.608;7.216;2023-07-31T14:50:05;18.72;96.07
65836;SHT30;52595;51.608;7.216;2023-07-31T14:52:31;18.74;95.03
65836;SHT30;52595;51.608;7.216;2023-07-31T14:54:57;18.69;96.13
65836;SHT30;52595;51.608;7.216;2023-07-31T14:57:22;18.68;95.09
65836;SHT30;52595;51.608;7.216;2023-07-31T14:59:47;18.65;95.39
65836;SHT30;52595;51.608;7.216;2023-07-31T15:02:13;18.64;95.34
65836;SHT30;52595;51.608;7.216;2023-07-31T15:04:38;18.64;95.48
65836;SHT30;52595;51.608;7.216;2023-07-31T15:07:04;18.58;95.50
65836;SHT30;52595;51.608;7.216;2023-07-31T15:09:30;18.47;95.58
65836;SHT30;52595;51.608;7.216;2023-07-31T15:11:56;18.38;95.69
65836;SHT30;52595;51.608;7.216;2023-07-31T15:14:22;18.41;95.39
65836;SHT30;52595;51.608;7.216;2023-07-31T15:16:47;18.37;96.20
65836;SHT30;52595;51.608;7.216;2023-07-31T15:19:14;18.38;95.63
65836;SHT30;52595;51.608;7.216;2023-07-31T15:21:39;18.37;95.42
65836;SHT30;52595;51.608;7.216;2023-07-31T15:24:05;18.36;95.81
65836;SHT30;52595;51.608;7.216;2023-07-31T15:26:30;18.36;96.17
65836;SHT30;52595;51.608;7.216;2023-07-31T15:29:02;18.33;96.78
65836;SHT30;52595;51.608;7.216;2023-07-31T15:31:30;18.13;98.10